LFOE 210400Z AUTO 33004KT 9999 OVC034 01/00 Q1037 NOSIG

ElémentsDécodage
LFOE Station météo située sur l'aérodrome de EVREUX Fauville
210400Z émis le 21 du mois à 04h00 UTC
AUTO Bulletin édité par un automate
33004KT vent du 330°, 04 noeuds
9999 visibilité horizontale supérieure à 10 Km
OVC034 couverture nuageuse totale (8/8) à 3400 pieds
01/00 température 01°C, point de rosée 00°C
 soit une humidité relative de 93%
Q1037 la pression au niveau de la mer (QNH) est de 1037 hPa
NOSIG Pas de changement significatif prévu au cours des deux heures suivant l'heure de l'observation